Time;durP1;ratioP1;P1;durP2;ratioP2;P2;SDS_P1;SDS_P2;PMS_P1;PMS_P2;Temp;Humidity;BMP_temperature;BMP_pressure;BME280_temperature;BME280_humidity;BME280_pressure;Samples;Min_cycle;Max_cycle;Signal;HPM_P1;HPM_P2
2022/05/05 00:01:46;;;;;;;19.80;13.80;;;;;;;7.81;90.17;97721.30;109811;1250;58890;-65
2022/05/05 00:04:22;;;;;;;18.30;13.60;;;;;;;7.84;89.80;97722.54;110018;1250;58817;-67
2022/05/05 00:06:53;;;;;;;19.00;13.10;;;;;;;7.87;90.57;97724.10;110197;1249;70742;-67
2022/05/05 00:09:24;;;;;;;14.90;11.60;;;;;;;7.88;91.30;97730.46;110188;1247;68472;-67
2022/05/05 00:14:42;;;;;;;15.50;11.30;;;;;;;7.87;90.45;97731.52;109890;1251;58920;-68
2022/05/05 00:17:13;;;;;;;16.60;11.60;;;;;;;7.86;89.90;97735.40;110005;1251;58878;-66
2022/05/05 00:19:43;;;;;;;21.20;15.20;;;;;;;7.85;89.27;97739.84;109653;1251;69920;-66
2022/05/05 00:22:16;;;;;;;16.90;12.70;;;;;;;7.85;89.07;97743.09;109924;1250;68716;-65
2022/05/05 00:24:47;;;;;;;16.50;12.90;;;;;;;7.87;88.56;97742.83;109910;1250;69044;-68
2022/05/05 00:27:19;;;;;;;15.00;11.10;;;;;;;7.89;88.51;97747.08;109887;1248;58866;-68
2022/05/05 00:29:51;;;;;;;17.20;12.00;;;;;;;7.88;88.34;97745.41;109991;1249;58951;-68
2022/05/05 00:32:22;;;;;;;19.40;13.50;;;;;;;7.87;87.27;97744.26;110034;1250;69773;-66
2022/05/05 00:34:53;;;;;;;21.20;14.70;;;;;;;7.84;87.12;97745.05;110049;1250;67769;-68
2022/05/05 00:37:25;;;;;;;18.00;14.00;;;;;;;7.82;87.05;97742.80;110065;1250;68450;-67
2022/05/05 00:39:56;;;;;;;23.90;15.90;;;;;;;7.80;87.10;97739.43;110093;1249;58919;-67
2022/05/05 00:42:28;;;;;;;20.10;13.60;;;;;;;7.79;89.77;97739.64;109941;1251;58881;-66
2022/05/05 00:45:01;;;;;;;21.20;14.60;;;;;;;7.78;91.02;97739.54;109805;1250;70717;-67
2022/05/05 00:47:32;;;;;;;23.90;16.30;;;;;;;7.78;91.66;97736.59;109757;1251;67993;-66
2022/05/05 00:50:05;;;;;;;21.10;14.80;;;;;;;7.78;90.65;97740.43;109859;1250;69432;-66
2022/05/05 00:52:35;;;;;;;20.10;15.30;;;;;;;7.78;92.26;97743.52;109813;1250;58969;-67
2022/05/05 00:55:05;;;;;;;21.20;15.10;;;;;;;7.77;91.57;97744.81;109908;1250;58871;-65
2022/05/05 00:57:37;;;;;;;16.70;12.50;;;;;;;7.77;92.68;97744.98;109739;1254;70595;-65
2022/05/05 01:00:08;;;;;;;16.40;13.30;;;;;;;7.78;93.33;97744.58;109866;1250;68701;-66
2022/05/05 01:02:38;;;;;;;20.20;14.90;;;;;;;7.80;93.76;97747.04;109625;1251;68824;-66
2022/05/05 01:05:08;;;;;;;20.00;13.10;;;;;;;7.82;93.24;97749.52;109641;1251;58921;-69
2022/05/05 01:07:38;;;;;;;;;;;;;;;7.86;93.05;97751.41;109772;1250;58872;-68
2022/05/05 01:10:09;;;;;;;16.40;11.40;;;;;;;7.89;93.19;97753.27;110019;1250;70714;-66
2022/05/05 01:12:38;;;;;;;15.20;11.20;;;;;;;7.92;92.02;97754.15;109988;1251;68509;-66
2022/05/05 01:15:09;;;;;;;17.60;12.00;;;;;;;7.98;92.26;97753.67;110021;1249;69038;-66
2022/05/05 01:17:41;;;;;;;17.90;13.30;;;;;;;8.02;93.06;97753.61;109772;1250;58960;-66
2022/05/05 01:20:12;;;;;;;;;;;;;;;8.05;93.16;97755.53;109676;1251;58910;-68
2022/05/05 01:22:45;;;;;;;18.30;11.70;;;;;;;8.08;93.69;97757.92;109995;1250;70698;-66
2022/05/05 01:28:13;;;;;;;18.00;13.90;;;;;;;8.16;93.45;97763.05;109899;1251;69047;-67
2022/05/05 01:30:45;;;;;;;17.20;12.40;;;;;;;8.19;93.48;97759.92;109923;1250;58896;-66
2022/05/05 01:33:16;;;;;;;13.50;10.20;;;;;;;8.23;93.23;97757.61;109992;1250;58934;-66
2022/05/05 01:35:49;;;;;;;12.40;9.50;;;;;;;8.27;92.72;97760.35;109844;1250;70697;-67
2022/05/05 01:38:25;;;;;;;10.10;7.70;;;;;;;8.31;91.43;97755.44;109991;1250;67837;-66
2022/05/05 01:40:56;;;;;;;11.90;9.00;;;;;;;8.34;89.98;97755.94;109860;1250;69427;-65
2022/05/05 01:43:27;;;;;;;10.90;7.50;;;;;;;8.37;89.77;97754.73;109820;1250;59356;-67
2022/05/05 01:45:57;;;;;;;;;;;;;;;8.41;90.41;97758.17;109933;1250;59203;-66
2022/05/05 01:48:29;;;;;;;11.60;7.60;;;;;;;8.44;90.64;97761.67;110000;1250;70786;-66
2022/05/05 01:50:58;;;;;;;9.60;7.40;;;;;;;8.45;89.58;97760.71;109843;1250;68392;-66
2022/05/05 01:53:28;;;;;;;;;;;;;;;8.46;90.09;97763.94;109831;1250;69340;-68
2022/05/05 01:55:58;;;;;;;12.40;9.80;;;;;;;8.45;91.13;97762.77;110048;1250;58868;-65
2022/05/05 01:58:27;;;;;;;15.60;12.00;;;;;;;8.45;91.20;97764.38;110025;1250;58851;-66
2022/05/05 02:00:58;;;;;;;11.50;9.00;;;;;;;8.45;90.62;97762.80;109889;1250;70704;-65
2022/05/05 02:03:29;;;;;;;13.10;10.80;;;;;;;8.48;90.18;97764.71;109788;1250;67788;-66
2022/05/05 02:05:59;;;;;;;13.40;10.10;;;;;;;8.51;90.04;97766.80;109665;1251;68912;-66
2022/05/05 02:08:29;;;;;;;14.70;10.50;;;;;;;8.47;88.55;97767.91;109832;1250;58949;-65
2022/05/05 02:10:59;;;;;;;19.70;13.40;;;;;;;8.38;88.12;97765.27;109907;1249;58893;-66
2022/05/05 02:13:29;;;;;;;;;;;;;;;8.29;89.07;97768.73;110051;1250;69781;-65
2022/05/05 02:16:00;;;;;;;14.00;10.30;;;;;;;8.20;90.62;97769.95;110029;1249;67653;-67
2022/05/05 02:18:31;;;;;;;13.90;10.80;;;;;;;8.18;90.73;97770.08;110107;1249;68445;-67
2022/05/05 02:21:01;;;;;;;11.70;9.90;;;;;;;8.16;89.93;97765.97;109928;1251;58947;-67
2022/05/05 02:23:31;;;;;;;22.10;14.20;;;;;;;8.15;89.83;97761.69;109979;1251;58812;-68
2022/05/05 02:26:01;;;;;;;20.50;14.90;;;;;;;8.14;90.13;97756.22;110011;1250;69937;-68
2022/05/05 02:28:31;;;;;;;;;;;;;;;8.10;89.71;97749.14;110008;1249;68834;-65
2022/05/05 02:31:02;;;;;;;19.30;14.80;;;;;;;8.07;89.74;97741.85;110056;1246;69260;-69
2022/05/05 02:33:34;;;;;;;14.10;10.00;;;;;;;8.04;89.36;97745.83;110195;1247;58923;-66
2022/05/05 02:38:55;;;;;;;17.90;12.00;;;;;;;8.02;92.34;97753.27;110063;1248;69597;-66
2022/05/05 02:41:25;;;;;;;13.90;10.50;;;;;;;8.01;93.92;97758.49;110117;1247;67786;-66
2022/05/05 02:43:55;;;;;;;15.60;12.90;;;;;;;8.02;94.01;97756.21;110064;1248;68533;-66
2022/05/05 02:46:26;;;;;;;18.70;14.90;;;;;;;8.05;93.99;97756.03;110059;1247;58828;-67
2022/05/05 02:48:56;;;;;;;19.10;15.70;;;;;;;8.09;93.88;97757.52;110079;1248;58859;-66
2022/05/05 02:51:26;;;;;;;18.10;12.60;;;;;;;8.13;94.39;97761.82;110082;1247;70549;-68
2022/05/05 02:56:44;;;;;;;14.50;11.20;;;;;;;8.16;92.54;97765.46;110002;1247;69109;-68
2022/05/05 02:59:14;;;;;;;16.30;13.70;;;;;;;8.16;92.16;97770.02;110130;1247;58933;-67
2022/05/05 03:01:44;;;;;;;20.00;15.70;;;;;;;8.14;91.59;97772.52;110020;1248;58858;-66
2022/05/05 03:04:14;;;;;;;21.80;16.70;;;;;;;8.11;92.75;97776.54;110043;1247;70696;-66
2022/05/05 03:06:44;;;;;;;22.60;15.60;;;;;;;8.05;93.61;97774.80;109836;1248;68610;-66
2022/05/05 03:09:15;;;;;;;20.00;15.50;;;;;;;8.01;93.58;97775.90;109968;1248;68811;-67
2022/05/05 03:11:45;;;;;;;21.20;17.30;;;;;;;7.96;93.45;97773.20;110116;1247;58868;-66
2022/05/05 03:14:15;;;;;;;19.90;15.00;;;;;;;7.91;92.67;97776.98;110070;1247;59232;-66
2022/05/05 03:16:45;;;;;;;17.70;11.90;;;;;;;7.87;92.14;97779.96;110047;1248;70721;-66
2022/05/05 03:19:14;;;;;;;17.50;13.60;;;;;;;7.84;92.22;97780.82;110068;1247;68668;-64
2022/05/05 03:21:44;;;;;;;14.70;12.80;;;;;;;7.81;92.69;97782.74;110086;1247;69494;-68
2022/05/05 03:24:14;;;;;;;18.00;14.20;;;;;;;7.77;92.19;97787.31;110265;1247;58862;-67
2022/05/05 03:26:44;;;;;;;16.50;12.50;;;;;;;7.70;91.74;97792.73;110151;1247;58865;-67
2022/05/05 03:29:14;;;;;;;19.40;16.40;;;;;;;7.62;91.52;97794.15;110107;1247;70521;-68
2022/05/05 03:31:44;;;;;;;16.70;14.80;;;;;;;7.58;91.35;97796.29;109974;1247;68457;-66
2022/05/05 03:34:16;;;;;;;22.90;17.30;;;;;;;7.57;91.84;97800.04;110025;1248;69582;-66
2022/05/05 03:36:47;;;;;;;20.40;16.60;;;;;;;7.53;92.18;97799.52;109869;1249;58865;-66
2022/05/05 03:39:19;;;;;;;15.60;12.40;;;;;;;7.51;92.84;97801.03;109946;1249;58990;-66
2022/05/05 03:41:50;;;;;;;20.60;16.40;;;;;;;7.50;93.09;97801.94;109909;1250;70703;-66
2022/05/05 03:44:22;;;;;;;17.40;13.40;;;;;;;7.51;92.89;97803.32;109979;1249;68592;-66
2022/05/05 03:46:52;;;;;;;17.60;15.00;;;;;;;7.51;92.86;97804.52;109993;1247;69936;-65
2022/05/05 03:49:22;;;;;;;18.20;14.60;;;;;;;7.52;93.38;97808.94;109969;1248;58939;-66
2022/05/05 03:51:52;;;;;;;20.80;16.30;;;;;;;7.54;94.18;97813.35;109871;1248;58881;-64
2022/05/05 03:54:26;;;;;;;20.40;16.80;;;;;;;7.56;94.23;97820.70;110020;1248;70669;-65
2022/05/05 03:56:55;;;;;;;19.40;15.50;;;;;;;7.60;94.25;97826.37;110230;1247;69198;-66
2022/05/05 03:59:24;;;;;;;18.00;14.70;;;;;;;7.64;94.16;97827.92;110157;1247;69039;-66
2022/05/05 04:01:53;;;;;;;17.90;11.60;;;;;;;7.68;93.79;97827.71;110109;1249;58885;-66
2022/05/05 04:04:22;;;;;;;14.90;11.80;;;;;;;7.73;93.37;97827.40;110167;1247;59232;-65
2022/05/05 04:06:52;;;;;;;19.30;15.00;;;;;;;7.82;93.01;97833.85;110082;1247;70787;-65
2022/05/05 04:09:22;;;;;;;14.10;11.90;;;;;;;7.92;92.43;97840.26;109785;1250;67635;-65
2022/05/05 04:11:51;;;;;;;14.00;10.90;;;;;;;8.03;91.58;97848.52;109995;1247;69657;-68
2022/05/05 04:14:21;;;;;;;17.50;14.60;;;;;;;8.16;90.97;97853.33;110047;1248;58875;-65
2022/05/05 04:16:50;;;;;;;18.50;15.30;;;;;;;8.27;90.25;97856.16;109942;1248;58880;-67
2022/05/05 04:19:19;;;;;;;17.30;14.00;;;;;;;8.39;89.36;97859.36;109977;1247;70777;-66
2022/05/05 04:21:49;;;;;;;15.00;12.40;;;;;;;8.46;88.18;97854.98;110136;1247;68911;-66
2022/05/05 04:24:19;;;;;;;;;;;;;;;8.50;87.55;97855.75;110011;1247;69415;-67
2022/05/05 04:26:49;;;;;;;17.90;14.80;;;;;;;8.55;87.45;97861.06;110053;1247;58871;-66
2022/05/05 04:29:19;;;;;;;14.30;12.30;;;;;;;8.62;87.33;97861.70;110078;1246;58897;-65
2022/05/05 04:31:52;;;;;;;18.70;15.00;;;;;;;8.69;86.99;97860.02;110079;1247;69984;-66
2022/05/05 04:34:22;;;;;;;15.70;13.90;;;;;;;8.78;86.56;97863.73;110044;1247;66822;-67
2022/05/05 04:36:53;;;;;;;15.40;13.50;;;;;;;8.83;86.62;97865.30;109805;1248;68526;-66
2022/05/05 04:39:22;;;;;;;14.40;11.70;;;;;;;8.92;86.89;97869.67;110144;1247;58900;-66
2022/05/05 04:41:52;;;;;;;;;;;;;;;9.05;86.83;97867.19;110237;1247;58869;-66
2022/05/05 04:44:22;;;;;;;15.50;13.20;;;;;;;9.20;86.70;97871.64;110009;1247;69943;-68
2022/05/05 04:46:51;;;;;;;16.10;13.90;;;;;;;9.37;86.37;97871.31;110006;1247;68720;-65
2022/05/05 04:49:20;;;;;;;18.60;14.80;;;;;;;9.55;86.03;97868.48;109989;1248;69373;-67
2022/05/05 04:51:50;;;;;;;15.80;13.70;;;;;;;9.85;85.72;97869.58;110077;1248;58955;-66
2022/05/05 04:54:20;;;;;;;11.90;10.50;;;;;;;10.21;84.32;97870.46;110181;1247;58856;-64
2022/05/05 04:56:49;;;;;;;13.40;11.40;;;;;;;10.60;82.64;97874.06;110008;1247;69838;-65
2022/05/05 04:59:19;;;;;;;11.10;10.00;;;;;;;10.92;81.29;97876.96;109988;1247;68823;-65
2022/05/05 05:01:48;;;;;;;;;;;;;;;11.24;79.64;97876.05;110037;1247;68630;-65
2022/05/05 05:04:21;;;;;;;9.60;8.60;;;;;;;11.58;79.24;97871.95;109994;1250;58920;-67
2022/05/05 05:06:51;;;;;;;10.60;9.50;;;;;;;12.07;78.55;97879.02;110177;1248;58869;-68
2022/05/05 05:09:21;;;;;;;10.60;9.50;;;;;;;12.34;75.12;97878.64;109898;1247;70711;-66
2022/05/05 05:11:50;;;;;;;9.90;8.30;;;;;;;12.62;73.82;97881.31;110078;1247;68014;-65
2022/05/05 05:14:19;;;;;;;8.90;8.10;;;;;;;13.10;76.15;97882.66;110172;1247;68630;-66
2022/05/05 05:16:48;;;;;;;9.40;7.90;;;;;;;13.40;72.57;97879.49;110161;1247;58914;-66
2022/05/05 05:19:18;;;;;;;7.40;6.60;;;;;;;13.68;70.26;97883.62;110189;1247;58947;-66
2022/05/05 05:21:47;;;;;;;7.60;6.70;;;;;;;14.01;69.35;97881.89;109890;1248;68962;-66
2022/05/05 05:24:17;;;;;;;8.90;8.00;;;;;;;14.24;66.20;97883.09;110087;1247;67807;-66
2022/05/05 05:26:46;;;;;;;7.80;6.60;;;;;;;14.47;65.28;97883.72;110005;1247;68706;-66
2022/05/05 05:29:16;;;;;;;9.20;8.30;;;;;;;14.75;65.59;97886.49;110058;1249;58884;-67
2022/05/05 05:31:45;;;;;;;8.70;7.90;;;;;;;15.10;68.18;97890.79;110006;1251;58915;-66
2022/05/05 05:34:19;;;;;;;8.60;7.70;;;;;;;15.36;67.71;97886.15;110186;1247;70783;-68
2022/05/05 05:36:52;;;;;;;8.40;7.50;;;;;;;15.73;68.73;97887.23;109848;1250;68476;-67
2022/05/05 05:39:21;;;;;;;7.30;6.50;;;;;;;16.06;68.04;97889.45;109988;1250;69515;-68
2022/05/05 05:41:50;;;;;;;8.80;8.00;;;;;;;16.25;63.93;97892.84;109914;1248;58921;-67
2022/05/05 05:44:19;;;;;;;9.00;7.70;;;;;;;16.20;58.63;97895.06;110209;1247;58919;-68
2022/05/05 05:46:48;;;;;;;8.60;7.30;;;;;;;15.91;58.89;97894.95;110209;1247;69309;-68
2022/05/05 05:49:18;;;;;;;7.70;6.90;;;;;;;15.92;58.67;97896.79;109924;1250;67535;-66
2022/05/05 05:51:47;;;;;;;7.30;6.40;;;;;;;15.83;57.53;97899.33;110037;1248;69432;-68
2022/05/05 05:54:17;;;;;;;6.40;5.80;;;;;;;16.14;58.11;97901.00;110092;1247;58944;-68
2022/05/05 05:56:47;;;;;;;9.60;6.70;;;;;;;16.47;58.03;97906.25;110129;1247;58932;-67
2022/05/05 05:59:15;;;;;;;8.00;7.10;;;;;;;16.54;55.71;97905.11;110084;1248;69940;-66
2022/05/05 06:04:32;;;;;;;7.40;6.60;;;;;;;16.42;56.38;97913.67;110223;1247;69521;-68
2022/05/05 06:07:01;;;;;;;9.30;7.20;;;;;;;16.12;56.81;97911.23;110180;1247;58873;-66
2022/05/05 06:09:31;;;;;;;7.50;6.70;;;;;;;16.38;56.26;97914.52;110070;1247;58854;-66
2022/05/05 06:12:00;;;;;;;7.00;6.30;;;;;;;16.77;54.15;97913.05;110009;1247;69790;-67
2022/05/05 06:14:30;;;;;;;6.90;6.20;;;;;;;17.06;53.53;97911.84;109835;1250;68223;-65
2022/05/05 06:17:00;;;;;;;8.10;7.30;;;;;;;17.18;53.36;97908.86;110006;1247;69590;-65
2022/05/05 06:19:29;;;;;;;;;;;;;;;17.10;53.09;97910.19;110072;1247;58864;-66
2022/05/05 06:21:59;;;;;;;7.30;6.60;;;;;;;17.27;52.53;97913.95;110085;1247;58933;-66
2022/05/05 06:24:28;;;;;;;;;;;;;;;17.41;52.08;97920.41;109991;1247;71371;-66
2022/05/05 06:26:57;;;;;;;7.80;6.20;;;;;;;17.30;51.63;97919.35;110158;1249;68557;-66
2022/05/05 06:29:27;;;;;;;6.30;5.70;;;;;;;17.24;52.58;97923.55;109997;1247;69444;-66
2022/05/05 06:31:56;;;;;;;;;;;;;;;17.46;51.89;97924.49;110063;1247;58871;-67
2022/05/05 06:34:26;;;;;;;8.40;7.50;;;;;;;17.68;51.98;97921.06;109997;1247;58835;-67
2022/05/05 06:36:55;;;;;;;6.50;5.80;;;;;;;17.71;51.20;97925.59;109852;1248;70876;-67
2022/05/05 06:39:25;;;;;;;8.40;6.80;;;;;;;17.66;51.65;97924.04;109973;1247;68593;-65
2022/05/05 06:41:56;;;;;;;7.00;6.30;;;;;;;17.73;50.47;97923.22;110105;1247;69428;-68
2022/05/05 06:44:27;;;;;;;6.80;6.20;;;;;;;17.96;50.88;97924.10;110070;1248;58941;-67
2022/05/05 06:46:58;;;;;;;;;;;;;;;18.01;49.65;97923.60;110248;1247;58955;-67
2022/05/05 06:49:27;;;;;;;6.80;5.50;;;;;;;17.75;49.97;97925.16;110177;1247;69307;-67
2022/05/05 06:51:56;;;;;;;6.00;5.40;;;;;;;18.08;49.94;97926.83;110116;1247;66930;-67
2022/05/05 06:54:30;;;;;;;6.10;5.20;;;;;;;18.04;47.81;97925.98;110001;1250;69426;-67
2022/05/05 06:57:00;;;;;;;6.60;5.90;;;;;;;18.09;47.74;97923.07;109982;1249;58896;-70
2022/05/05 06:59:30;;;;;;;6.10;5.40;;;;;;;18.15;47.89;97928.98;110110;1248;58932;-68
2022/05/05 07:02:02;;;;;;;5.50;4.90;;;;;;;18.55;46.11;97929.54;110089;1249;70785;-68
2022/05/05 07:07:21;;;;;;;5.40;4.60;;;;;;;19.00;43.58;97931.14;110158;1247;69471;-69
2022/05/05 07:12:38;;;;;;;5.10;4.60;;;;;;;19.13;43.19;97925.65;110144;1248;58864;-70
2022/05/05 07:15:08;;;;;;;4.80;4.30;;;;;;;19.05;43.13;97922.67;110201;1247;69745;-70
2022/05/05 07:17:38;;;;;;;5.90;5.30;;;;;;;19.36;43.78;97922.13;110140;1247;67055;-70
2022/05/05 07:20:08;;;;;;;4.90;4.20;;;;;;;19.65;42.89;97920.27;110163;1247;69559;-68
2022/05/05 07:22:37;;;;;;;5.00;4.40;;;;;;;19.78;41.43;97921.51;110185;1247;58793;-69
2022/05/05 07:25:07;;;;;;;5.80;4.50;;;;;;;19.74;41.38;97920.58;110102;1248;58882;-68
2022/05/05 07:27:38;;;;;;;5.20;4.30;;;;;;;19.64;39.69;97924.42;109952;1247;70324;-70
2022/05/05 07:30:08;;;;;;;5.40;4.80;;;;;;;19.50;39.62;97928.98;110219;1248;68667;-69
2022/05/05 07:32:38;;;;;;;6.70;4.50;;;;;;;19.43;40.04;97929.40;110048;1250;69556;-70
2022/05/05 07:35:08;;;;;;;6.00;5.10;;;;;;;19.33;41.43;97930.42;110152;1247;58879;-70
2022/05/05 07:37:39;;;;;;;8.20;5.60;;;;;;;19.37;41.42;97934.55;109986;1250;58938;-69
2022/05/05 07:40:08;;;;;;;6.90;5.40;;;;;;;19.59;41.99;97931.95;110174;1247;70341;-69
2022/05/05 07:42:41;;;;;;;7.30;5.40;;;;;;;19.62;41.80;97932.15;110039;1247;67297;-69
2022/05/05 07:45:10;;;;;;;9.00;6.10;;;;;;;19.55;41.90;97931.12;110141;1247;68869;-69
2022/05/05 07:47:40;;;;;;;;;;;;;;;19.67;42.90;97929.36;110157;1247;58904;-70
2022/05/05 07:50:11;;;;;;;5.90;4.90;;;;;;;19.87;43.00;97922.75;109963;1250;58998;-67
2022/05/05 07:52:47;;;;;;;6.60;5.90;;;;;;;20.12;42.40;97929.73;109974;1250;69968;-68
2022/05/05 07:55:22;;;;;;;5.40;4.70;;;;;;;20.13;41.55;97928.02;110180;1247;67820;-71
2022/05/05 07:57:51;;;;;;;6.60;5.80;;;;;;;20.26;41.33;97924.36;110152;1247;68636;-70
2022/05/05 08:00:21;;;;;;;6.70;5.90;;;;;;;19.97;42.24;97929.86;110179;1247;58857;-67
2022/05/05 08:02:57;;;;;;;6.30;5.70;;;;;;;19.89;41.66;97930.35;110014;1247;58828;-70
2022/05/05 08:05:30;;;;;;;6.50;5.70;;;;;;;19.65;43.04;97931.23;110037;1248;69986;-68
2022/05/05 08:07:59;;;;;;;6.30;5.70;;;;;;;19.76;42.79;97932.40;110037;1248;68530;-68
2022/05/05 08:10:29;;;;;;;6.80;6.10;;;;;;;19.47;43.44;97929.75;110186;1247;69517;-69
2022/05/05 08:12:58;;;;;;;6.20;5.60;;;;;;;19.64;43.03;97924.91;110083;1249;58890;-70
2022/05/05 08:15:27;;;;;;;7.70;5.40;;;;;;;19.24;44.75;97921.20;110203;1247;58944;-71
2022/05/05 08:17:56;;;;;;;6.70;6.10;;;;;;;19.44;44.89;97919.63;110184;1247;70754;-69
2022/05/05 08:20:25;;;;;;;5.60;5.10;;;;;;;19.42;43.45;97924.85;110142;1245;68611;-68
2022/05/05 08:22:54;;;;;;;6.10;5.50;;;;;;;19.52;43.56;97918.83;109939;1247;69457;-70
2022/05/05 08:28:29;;;;;;;5.80;5.20;;;;;;;19.24;43.66;97913.85;110154;1247;58928;-69
2022/05/05 08:30:58;;;;;;;6.40;5.10;;;;;;;19.74;42.62;97919.85;109911;1247;70747;-71
2022/05/05 08:33:27;;;;;;;7.60;5.60;;;;;;;20.18;41.48;97913.52;110189;1248;68247;-71
2022/05/05 08:35:58;;;;;;;5.90;5.30;;;;;;;20.35;41.48;97912.80;110149;1247;69450;-70
2022/05/05 08:38:27;;;;;;;6.00;5.40;;;;;;;20.84;40.68;97918.06;110059;1247;58880;-70
2022/05/05 08:40:57;;;;;;;6.80;5.90;;;;;;;21.07;39.70;97917.20;110003;1248;58837;-68
2022/05/05 08:43:28;;;;;;;6.40;4.90;;;;;;;20.83;39.07;97913.98;110200;1248;69784;-69
2022/05/05 08:46:23;;;;;;;4.90;4.20;;;;;;;21.00;39.02;97912.45;110059;1247;67720;-70
2022/05/05 08:49:02;;;;;;;5.30;4.80;;;;;;;20.46;40.52;97910.67;110163;1247;69394;-70
2022/05/05 08:51:44;;;;;;;5.30;4.80;;;;;;;20.84;40.13;97915.04;110184;1247;58898;-70
2022/05/05 08:54:18;;;;;;;5.40;4.90;;;;;;;21.06;40.39;97919.38;110209;1247;58817;-74
2022/05/05 08:56:54;;;;;;;5.90;5.00;;;;;;;21.30;39.87;97917.52;110242;1247;70197;-68
2022/05/05 08:59:24;;;;;;;4.90;4.50;;;;;;;21.38;39.66;97919.71;110187;1247;68598;-69
2022/05/05 09:01:53;;;;;;;4.70;4.20;;;;;;;22.22;37.33;97913.04;110163;1247;69400;-71
2022/05/05 09:04:25;;;;;;;4.30;3.50;;;;;;;22.73;36.93;97913.98;109970;1248;58928;-73
2022/05/05 09:06:54;;;;;;;4.10;3.50;;;;;;;23.14;35.90;97912.81;110054;1247;58863;-70
2022/05/05 09:09:32;;;;;;;5.40;4.90;;;;;;;23.87;34.66;97915.41;109882;1247;69706;-71
2022/05/05 09:12:10;;;;;;;5.30;4.80;;;;;;;23.29;34.38;97915.56;110183;1247;68229;-71
2022/05/05 09:14:43;;;;;;;5.00;4.50;;;;;;;22.92;34.77;97912.19;110248;1247;69904;-68
2022/05/05 09:17:22;;;;;;;5.50;5.00;;;;;;;23.27;36.60;97916.15;110150;1247;58926;-70
2022/05/05 09:19:54;;;;;;;5.50;4.90;;;;;;;23.86;34.19;97911.77;110231;1247;59282;-69
2022/05/05 09:22:26;;;;;;;5.20;4.60;;;;;;;24.36;33.65;97910.36;110198;1247;70683;-69
2022/05/05 09:24:57;;;;;;;4.80;4.20;;;;;;;24.67;33.72;97909.61;110214;1247;67842;-69
2022/05/05 09:27:28;;;;;;;3.90;3.50;;;;;;;25.19;31.57;97915.36;110015;1248;69570;-69
2022/05/05 09:30:08;;;;;;;4.70;4.20;;;;;;;25.59;30.40;97914.27;110175;1248;58938;-69
2022/05/05 09:32:45;;;;;;;6.40;4.70;;;;;;;25.95;29.52;97913.05;110201;1245;58936;-68
2022/05/05 09:35:17;;;;;;;6.10;4.60;;;;;;;25.52;30.52;97916.30;110221;1247;70722;-70
2022/05/05 09:37:52;;;;;;;4.80;4.20;;;;;;;25.35;29.60;97917.70;110215;1247;68546;-71
2022/05/05 09:40:23;;;;;;;5.30;4.80;;;;;;;24.86;29.79;97916.25;110067;1248;68728;-69
2022/05/05 09:42:53;;;;;;;4.30;3.90;;;;;;;25.61;29.39;97918.17;110180;1247;58853;-71
2022/05/05 09:45:26;;;;;;;5.20;4.50;;;;;;;25.77;29.12;97914.75;110162;1247;58875;-70
2022/05/05 09:48:06;;;;;;;6.10;4.60;;;;;;;25.54;27.98;97914.34;110159;1247;70857;-70
2022/05/05 09:50:37;;;;;;;4.40;4.00;;;;;;;24.96;29.17;97908.17;110186;1247;67653;-71
2022/05/05 09:58:48;;;;;;;4.40;4.00;;;;;;;25.79;28.76;97904.83;109852;1250;58880;-70
2022/05/05 10:01:24;;;;;;;5.00;4.30;;;;;;;26.79;27.65;97898.73;110022;1249;70753;-68
2022/05/05 10:04:01;;;;;;;4.60;4.00;;;;;;;26.75;26.23;97897.08;110117;1250;68598;-67
2022/05/05 10:06:41;;;;;;;4.90;4.40;;;;;;;26.68;26.31;97896.89;110121;1250;69298;-69
2022/05/05 10:09:13;;;;;;;3.60;3.30;;;;;;;26.64;26.62;97895.96;109862;1248;58884;-69
2022/05/05 10:11:42;;;;;;;4.20;3.40;;;;;;;26.43;27.49;97897.52;110202;1247;58863;-68
2022/05/05 10:14:13;;;;;;;5.20;4.00;;;;;;;26.57;27.89;97897.84;110239;1247;70771;-70
2022/05/05 10:16:43;;;;;;;4.00;3.60;;;;;;;26.29;27.82;97898.23;110234;1247;67841;-67
2022/05/05 10:19:15;;;;;;;3.80;3.40;;;;;;;25.96;28.09;97897.91;110049;1250;69217;-68
2022/05/05 10:22:03;;;;;;;4.60;4.10;;;;;;;25.47;28.34;97899.66;109962;1250;58850;-69
2022/05/05 10:24:38;;;;;;;4.10;3.70;;;;;;;24.84;28.33;97897.76;110081;1248;58824;-70
2022/05/05 10:27:10;;;;;;;5.80;4.60;;;;;;;24.76;27.90;97895.53;110075;1249;70708;-72
2022/05/05 10:29:43;;;;;;;5.00;4.40;;;;;;;24.48;28.94;97893.33;110015;1250;68584;-68
2022/05/05 10:32:15;;;;;;;5.00;4.50;;;;;;;24.02;28.57;97894.73;109967;1248;69611;-70
2022/05/05 10:34:52;;;;;;;5.10;4.60;;;;;;;23.73;28.57;97893.63;109995;1248;59364;-70
2022/05/05 10:37:37;;;;;;;5.10;4.50;;;;;;;23.79;28.32;97895.77;110217;1247;58870;-69
2022/05/05 10:40:08;;;;;;;4.60;4.20;;;;;;;23.69;29.13;97895.14;110260;1247;70544;-69
2022/05/05 10:42:45;;;;;;;6.60;4.40;;;;;;;23.87;29.10;97896.96;110057;1248;68574;-67
2022/05/05 10:45:17;;;;;;;4.90;4.40;;;;;;;24.17;27.28;97897.03;110145;1247;68878;-68
2022/05/05 10:48:04;;;;;;;4.50;4.10;;;;;;;24.38;27.17;97889.64;110051;1248;58934;-69
2022/05/05 10:50:54;;;;;;;4.20;3.80;;;;;;;25.27;26.68;97889.66;110206;1247;58874;-71
2022/05/05 10:53:26;;;;;;;6.60;4.90;;;;;;;25.80;25.88;97889.52;109937;1247;70196;-68
2022/05/05 10:55:56;;;;;;;5.20;4.10;;;;;;;26.15;25.55;97883.27;110024;1247;67832;-71
2022/05/05 10:58:59;;;;;;;4.40;3.80;;;;;;;26.27;25.08;97883.73;110007;1247;68760;-69
2022/05/05 11:01:33;;;;;;;4.40;4.00;;;;;;;26.87;24.97;97883.32;110182;1247;58861;-70
2022/05/05 11:04:15;;;;;;;4.80;4.30;;;;;;;27.21;24.46;97882.14;110053;1248;58920;-68
2022/05/05 11:06:48;;;;;;;5.60;5.00;;;;;;;27.28;24.26;97885.86;110208;1247;70611;-72
2022/05/05 11:09:37;;;;;;;5.20;3.80;;;;;;;26.72;24.17;97883.69;110083;1250;68434;-67
2022/05/05 11:12:24;;;;;;;5.40;4.40;;;;;;;26.72;24.47;97884.73;110125;1248;69537;-67
2022/05/05 11:23:43;;;;;;;4.20;3.40;;;;;;;27.03;23.75;97873.36;110054;1248;68686;-70
2022/05/05 11:26:20;;;;;;;3.80;3.10;;;;;;;26.79;23.49;97869.14;110157;1248;69545;-71
2022/05/05 11:28:50;;;;;;;4.10;3.60;;;;;;;27.42;22.99;97870.73;109984;1248;58946;-69
2022/05/05 11:31:24;;;;;;;3.60;3.00;;;;;;;27.78;23.41;97866.55;110020;1248;58872;-70
2022/05/05 11:33:56;;;;;;;4.00;3.10;;;;;;;27.88;22.46;97863.21;109982;1247;70756;-69
2022/05/05 11:36:30;;;;;;;4.10;3.60;;;;;;;28.14;21.97;97861.34;110057;1248;69084;-70
2022/05/05 11:39:00;;;;;;;5.00;3.30;;;;;;;28.28;22.48;97861.34;110011;1250;68659;-69
2022/05/05 11:41:32;;;;;;;3.70;3.40;;;;;;;28.33;21.91;97854.68;110042;1248;58911;-70
2022/05/05 11:44:35;;;;;;;3.70;3.40;;;;;;;28.57;21.89;97857.67;110228;1247;58938;-70
2022/05/05 11:47:00;;;;;;;7.10;3.90;;;;;;;27.51;21.58;97853.75;110076;1250;70760;-68
2022/05/05 11:49:32;;;;;;;3.60;3.30;;;;;;;27.61;22.59;97851.02;110004;1250;68484;-68
2022/05/05 11:52:03;;;;;;;3.60;3.20;;;;;;;27.25;22.32;97853.75;110152;1248;69201;-73
2022/05/05 11:54:34;;;;;;;4.80;3.40;;;;;;;26.31;23.05;97851.89;110004;1248;58910;-70
2022/05/05 11:57:03;;;;;;;4.00;3.60;;;;;;;26.33;22.92;97849.45;110190;1246;58953;-69
2022/05/05 12:02:23;;;;;;;4.70;3.80;;;;;;;25.98;23.67;97849.84;109993;1247;67835;-68
2022/05/05 12:04:56;;;;;;;4.50;3.70;;;;;;;25.33;24.03;97853.41;109925;1250;69450;-68
2022/05/05 12:07:27;;;;;;;4.20;3.10;;;;;;;24.85;24.59;97852.84;110242;1247;58880;-70
2022/05/05 12:10:02;;;;;;;6.70;3.80;;;;;;;24.40;26.75;97852.77;110192;1247;58856;-71
2022/05/05 12:12:32;;;;;;;3.70;3.20;;;;;;;24.20;26.47;97843.66;110155;1247;70577;-70
2022/05/05 12:15:04;;;;;;;3.70;3.20;;;;;;;24.07;25.73;97842.85;110210;1247;68562;-69
2022/05/05 12:17:45;;;;;;;3.90;3.20;;;;;;;24.22;26.54;97840.67;110186;1247;69353;-67
2022/05/05 12:20:17;;;;;;;4.10;3.50;;;;;;;24.40;25.97;97843.78;109994;1248;59273;-69
2022/05/05 12:23:13;;;;;;;3.50;3.00;;;;;;;23.76;25.11;97840.54;110230;1247;58893;-68
2022/05/05 12:25:45;;;;;;;3.40;2.90;;;;;;;23.94;26.23;97839.61;110187;1247;70047;-69
2022/05/05 12:28:14;;;;;;;4.20;3.80;;;;;;;24.01;26.19;97837.42;110055;1250;68607;-68